Aviation Digital Data Service (ADDS)

Output produced by METARs form (0606 UTC 24 May 2017)
found at http://aviationweather.gov/adds/metars/
 
KAEX 240553Z 31009KT 8SM -RA BKN021 BKN029 OVC050 18/17 A2977 RMK AO2 RAE08B39 SLP085 P0000 6//// T01780167 10233 20178 402560172 50006 $